Terminal Aerodrome Forecast
Issued by NWS

Home | Current Version | Previous Version | Text Only | Print | Product List | Glossary On
Versions: 1 2 3 4 5 6 7 8 9 10 11 12 13 14 15 16 17 18 19
000
FTUS44 KMAF 221129
TAFCNM
TAF
KCNM 221129Z 2212/2312 12006KT P6SM FEW250
      TEMPO 2212/2216 3SM BR OVC005
     FM222000 22013KT P6SM SCT250
     FM230100 21007KT P6SM SCT250=

USA.gov is the U.S. government's official web portal to all federal, state and local government web resources and services.